createdAt,value
2019-04-25T00:01:52.278Z,19.9
2019-04-25T00:06:57.710Z,17.2
2019-04-25T00:12:02.755Z,20.8
2019-04-25T00:17:06.521Z,20.8
2019-04-25T00:22:11.627Z,22.7
2019-04-25T00:27:17.368Z,20.7
2019-04-25T00:32:24.361Z,20.9
2019-04-25T00:37:29.492Z,20
2019-04-25T00:42:36.583Z,19.3
2019-04-25T00:47:43.361Z,21.4
2019-04-25T00:52:49.123Z,18.3
2019-04-25T00:57:55.836Z,20.1
2019-04-25T01:03:01.577Z,17.8
2019-04-25T01:08:08.692Z,23
2019-04-25T01:13:15.457Z,17.1
2019-04-25T01:18:20.732Z,18.6
2019-04-25T01:23:30.228Z,19.1
2019-04-25T01:28:37.226Z,17.5
2019-04-25T01:33:43.311Z,18.1
2019-04-25T01:38:49.050Z,19
2019-04-25T01:43:54.475Z,21.3
2019-04-25T01:48:54.459Z,20.1
2019-04-25T01:54:01.407Z,21
2019-04-25T01:59:08.840Z,20.5
2019-04-25T02:04:13.941Z,20.7
2019-04-25T02:09:19.282Z,21.7
2019-04-25T02:14:24.286Z,23.2
2019-04-25T02:19:29.803Z,20.2
2019-04-25T02:24:38.265Z,20.7
2019-04-25T02:29:44.660Z,22.9
2019-04-25T02:34:50.170Z,18.3
2019-04-25T02:39:50.221Z,22.1
2019-04-25T02:44:55.053Z,19.3
2019-04-25T02:50:03.141Z,20
2019-04-25T02:55:04.881Z,26.6
2019-04-25T03:00:08.791Z,20.1
2019-04-25T03:05:14.503Z,21.2
2019-04-25T03:10:20.095Z,21
2019-04-25T03:15:24.576Z,19.9
2019-04-25T03:20:29.531Z,18.7
2019-04-25T03:25:36.180Z,19
2019-04-25T03:30:41.416Z,21
2019-04-25T03:35:49.472Z,21.2
2019-04-25T03:40:56.238Z,19.6
2019-04-25T03:46:02.420Z,20.8
2019-04-25T03:51:02.694Z,24.1
2019-04-25T03:56:11.271Z,21
2019-04-25T04:01:19.305Z,19.8
2019-04-25T04:06:24.345Z,20
2019-04-25T04:11:29.571Z,23.1
2019-04-25T04:16:36.509Z,21.6
2019-04-25T04:21:43.204Z,19.8
2019-04-25T04:26:48.647Z,19.5
2019-04-25T04:31:50.687Z,20.9
2019-04-25T04:36:58.065Z,27.2
2019-04-25T04:42:03.859Z,24.6
2019-04-25T04:47:11.286Z,20.3
2019-04-25T04:52:20.207Z,23.6
2019-04-25T04:57:33.907Z,20.9
2019-04-25T05:02:31.320Z,23.5
2019-04-25T05:07:37.838Z,21.9
2019-04-25T05:12:43.756Z,21.9
2019-04-25T05:17:49.252Z,23.6
2019-04-25T05:22:54.901Z,19.9
2019-04-25T05:28:03.033Z,25.3
2019-04-25T05:33:10.235Z,24.4
2019-04-25T05:38:13.483Z,25.2
2019-04-25T05:43:21.238Z,28.4
2019-04-25T05:48:29.719Z,26.6
2019-04-25T05:53:36.924Z,26.2
2019-04-25T05:58:43.884Z,24
2019-04-25T06:03:49.206Z,31.5
2019-04-25T06:08:54.260Z,24.7
2019-04-25T06:14:00.321Z,22.2
2019-04-25T06:19:11.744Z,25.7
2019-04-25T06:24:07.294Z,25.8
2019-04-25T06:29:13.377Z,27.9
2019-04-25T06:34:27.945Z,26.6
2019-04-25T06:39:24.325Z,23.4
2019-04-25T06:44:28.047Z,24.5
2019-04-25T06:49:36.271Z,33.7
2019-04-25T06:54:35.785Z,25.8
2019-04-25T06:59:43.716Z,30.4
2019-04-25T07:04:48.132Z,28.3
2019-04-25T07:09:58.105Z,29
2019-04-25T07:15:03.940Z,26.8
2019-04-25T07:20:09.329Z,33.5
2019-04-25T07:25:14.751Z,31.3
2019-04-25T07:30:28.146Z,37.2
2019-04-25T07:35:27.071Z,29
2019-04-25T07:40:33.976Z,33.3
2019-04-25T07:45:41.428Z,37.1
2019-04-25T07:50:46.704Z,32.7
2019-04-25T07:55:51.938Z,33.1
2019-04-25T08:00:51.927Z,33.2
2019-04-25T08:05:59.370Z,35.2
2019-04-25T08:11:06.491Z,32.2
2019-04-25T08:16:14.326Z,34.4
2019-04-25T08:21:11.857Z,35.3
2019-04-25T08:26:18.067Z,30.1
2019-04-25T08:31:24.149Z,35
2019-04-25T08:36:31.176Z,31
2019-04-25T08:41:32.396Z,33.1
2019-04-25T08:46:36.593Z,33.8
2019-04-25T08:51:36.087Z,32
2019-04-25T08:56:43.957Z,34.1
2019-04-25T09:01:49.426Z,37.1
2019-04-25T09:06:56.346Z,39.6
2019-04-25T09:12:01.420Z,44.6
2019-04-25T09:17:08.503Z,35.8
2019-04-25T09:22:13.875Z,40.8
2019-04-25T09:27:19.323Z,36.5
2019-04-25T09:32:26.282Z,48.1
2019-04-25T09:37:33.411Z,38.2
2019-04-25T09:42:35.688Z,42.2
2019-04-25T09:47:35.587Z,42.8
2019-04-25T09:52:44.305Z,45.4
2019-04-25T09:57:45.539Z,35.6
2019-04-25T10:02:51.868Z,39.7
2019-04-25T10:07:58.602Z,42.5
2019-04-25T10:13:04.677Z,42.9
2019-04-25T10:18:14.248Z,38.3
2019-04-25T10:23:23.735Z,36.1
2019-04-25T10:28:24.337Z,39.2
2019-04-25T10:33:29.719Z,46
2019-04-25T10:38:35.098Z,38.7
2019-04-25T10:43:44.001Z,39.2
2019-04-25T10:48:52.727Z,41.5
2019-04-25T10:54:01.294Z,38.6
2019-04-25T10:59:08.664Z,37
2019-04-25T11:04:13.887Z,41.5
2019-04-25T11:09:14.252Z,39.3
2019-04-25T11:14:19.167Z,39.5
2019-04-25T11:19:25.921Z,42.9
2019-04-25T11:24:29.742Z,37.6
2019-04-25T11:29:34.779Z,44.3
2019-04-25T11:34:40.050Z,37.8
2019-04-25T11:39:41.795Z,40.7
2019-04-25T11:44:45.415Z,38.8
2019-04-25T11:49:42.083Z,42.7
2019-04-25T11:54:43.123Z,44.8
2019-04-25T11:59:47.920Z,39.8
2019-04-25T12:04:49.006Z,40.2
2019-04-25T12:09:55.609Z,36.9
2019-04-25T12:15:01.136Z,37
2019-04-25T12:20:11.106Z,34.4
2019-04-25T12:25:16.246Z,35.6
2019-04-25T12:30:36.344Z,32.8
2019-04-25T12:35:33.370Z,34
2019-04-25T12:40:38.564Z,37
2019-04-25T12:45:43.878Z,37.6
2019-04-25T12:50:52.118Z,35.2
2019-04-25T12:55:59.593Z,25.1
2019-04-25T13:01:04.836Z,14.9
2019-04-25T13:06:09.829Z,16.9
2019-04-25T13:11:16.868Z,23.5
2019-04-25T13:16:22.096Z,18
2019-04-25T13:21:28.844Z,25
2019-04-25T13:26:33.943Z,22.6
2019-04-25T13:31:39.435Z,26.1
2019-04-25T13:36:44.644Z,21.2
2019-04-25T13:41:50.630Z,19.7
2019-04-25T13:46:58.121Z,25.2
2019-04-25T13:52:03.783Z,22.1
2019-04-25T13:57:08.990Z,22.9
2019-04-25T14:02:14.206Z,15.3
2019-04-25T14:07:19.396Z,20
2019-04-25T14:12:21.400Z,19.4
2019-04-25T14:17:24.469Z,25.9
2019-04-25T14:22:31.381Z,21
2019-04-25T14:27:37.020Z,23.4
2019-04-25T14:32:43.493Z,20
2019-04-25T14:37:49.023Z,21.4
2019-04-25T14:42:54.516Z,14.7
2019-04-25T14:48:00.032Z,24.6
2019-04-25T14:53:05.486Z,16.1
2019-04-25T14:58:09.095Z,23.4
2019-04-25T15:03:14.356Z,19.8
2019-04-25T15:08:17.950Z,22
2019-04-25T15:13:21.745Z,23.7
2019-04-25T15:18:30.984Z,22.8
2019-04-25T15:23:39.881Z,25
2019-04-25T15:28:47.394Z,23.3
2019-04-25T15:33:53.091Z,18.8
2019-04-25T15:38:58.446Z,24.1
2019-04-25T15:44:03.625Z,20.6
2019-04-25T15:49:08.536Z,17.6
2019-04-25T15:54:13.548Z,24.9
2019-04-25T15:59:18.773Z,25
2019-04-25T16:04:19.554Z,28.6
2019-04-25T16:09:24.750Z,25.5
2019-04-25T16:14:31.337Z,23.6
2019-04-25T16:19:38.615Z,20.5
2019-04-25T16:24:47.912Z,18.5
2019-04-25T16:29:52.978Z,21.4
2019-04-25T16:35:01.810Z,27.3
2019-04-25T16:40:07.711Z,25.2
2019-04-25T16:45:12.138Z,31.9
2019-04-25T16:50:21.225Z,29.5
2019-04-25T16:55:25.976Z,28.6
2019-04-25T17:00:32.837Z,26
2019-04-25T17:05:34.580Z,28
2019-04-25T17:10:41.345Z,28.9
2019-04-25T17:15:50.238Z,32.3
2019-04-25T17:20:55.245Z,26.2
2019-04-25T17:25:58.737Z,31.6
2019-04-25T17:31:03.710Z,27.7
2019-04-25T17:36:09.665Z,27
2019-04-25T17:41:19.276Z,29.7
2019-04-25T17:46:26.634Z,34.6
2019-04-25T17:51:26.917Z,32
2019-04-25T17:56:36.501Z,23.6
2019-04-25T18:01:42.234Z,31.2
2019-04-25T18:06:47.979Z,28.9
2019-04-25T18:11:53.128Z,29.5
2019-04-25T18:16:57.452Z,28.9
2019-04-25T18:22:02.536Z,27.4
2019-04-25T18:27:08.934Z,30.1
2019-04-25T18:32:14.048Z,27.2
2019-04-25T18:37:19.693Z,27.1
2019-04-25T18:42:24.570Z,34.4
2019-04-25T18:47:32.627Z,29.7
2019-04-25T18:52:37.152Z,27
2019-04-25T18:57:44.127Z,30
2019-04-25T19:02:49.297Z,39.3
2019-04-25T19:07:54.586Z,36.2
2019-04-25T19:13:12.310Z,33.3
2019-04-25T19:18:11.139Z,33.5
2019-04-25T19:23:16.125Z,26.9
2019-04-25T19:28:21.314Z,32.5
2019-04-25T19:33:35.332Z,33.1
2019-04-25T19:38:33.276Z,27.5
2019-04-25T19:43:39.992Z,27.7
2019-04-25T19:48:46.910Z,29
2019-04-25T19:53:54.701Z,27.6
2019-04-25T19:58:59.737Z,31.2
2019-04-25T20:04:05.174Z,31.2
2019-04-25T20:09:10.284Z,29.2
2019-04-25T20:14:15.381Z,27.2
2019-04-25T20:19:20.364Z,32.8
2019-04-25T20:24:25.953Z,32.9
2019-04-25T20:29:29.649Z,36.6
2019-04-25T20:34:34.778Z,34.6
2019-04-25T20:39:43.480Z,28.9
2019-04-25T20:44:51.678Z,34.1
2019-04-25T20:49:55.917Z,33.1
2019-04-25T20:55:02.420Z,30.1
2019-04-25T21:00:07.657Z,34
2019-04-25T21:05:12.940Z,32.9
2019-04-25T21:10:18.352Z,25.8
2019-04-25T21:15:21.809Z,29
2019-04-25T21:20:26.852Z,28.5
2019-04-25T21:25:31.799Z,29
2019-04-25T21:30:36.934Z,32.1
2019-04-25T21:35:42.083Z,35.3
2019-04-25T21:40:48.708Z,28.7
2019-04-25T21:45:56.825Z,27.2
2019-04-25T21:51:05.984Z,27.8
2019-04-25T21:56:10.210Z,30.3
2019-04-25T22:01:15.375Z,29.9
2019-04-25T22:06:20.640Z,35.9
2019-04-25T22:11:25.645Z,36.7
2019-04-25T22:16:30.449Z,33.3
2019-04-25T22:21:38.509Z,35.1
2019-04-25T22:26:44.230Z,29.5
2019-04-25T22:31:47.780Z,30.1
2019-04-25T22:36:52.819Z,33.2
2019-04-25T22:41:58.271Z,30.1
2019-04-25T22:46:58.702Z,34.8
2019-04-25T22:52:07.025Z,30.2
2019-04-25T22:57:14.003Z,33.9
2019-04-25T23:02:21.015Z,32.8
2019-04-25T23:07:27.285Z,39.2
2019-04-25T23:12:33.553Z,38.9
2019-04-25T23:17:38.700Z,27.1
2019-04-25T23:22:45.523Z,28.8
2019-04-25T23:27:51.646Z,36.3
2019-04-25T23:32:57.802Z,34.7
2019-04-25T23:38:02.872Z,34.3
2019-04-25T23:43:10.287Z,26.5
2019-04-25T23:48:17.136Z,30.7
2019-04-25T23:53:22.202Z,37.4
2019-04-25T23:58:27.313Z,35.8
